sensor_id;sensor_type;location;lat;lon;timestamp;P1;durP1;ratioP1;P2;durP2;ratioP2
64857;SDS011;51335;51.148;6.950;2022-10-16T00:00:29;16.58;;;4.13;;
64857;SDS011;51335;51.148;6.950;2022-10-16T00:01:09;7.90;;;3.63;;
64857;SDS011;51335;51.148;6.950;2022-10-16T00:01:44;12.45;;;3.80;;
64857;SDS011;51335;51.148;6.950;2022-10-16T00:02:14;15.60;;;4.30;;
64857;SDS011;51335;51.148;6.950;2022-10-16T00:02:44;9.73;;;3.83;;
64857;SDS011;51335;51.148;6.950;2022-10-16T00:03:14;10.00;;;3.60;;
64857;SDS011;51335;51.148;6.950;2022-10-16T00:03:45;11.20;;;3.90;;
64857;SDS011;51335;51.148;6.950;2022-10-16T00:04:16;10.60;;;4.00;;
64857;SDS011;51335;51.148;6.950;2022-10-16T00:04:46;10.07;;;3.80;;
64857;SDS011;51335;51.148;6.950;2022-10-16T00:05:17;9.18;;;4.15;;
64857;SDS011;51335;51.148;6.950;2022-10-16T00:05:47;7.97;;;4.22;;
64857;SDS011;51335;51.148;6.950;2022-10-16T00:06:18;7.15;;;3.80;;
64857;SDS011;51335;51.148;6.950;2022-10-16T00:06:49;7.20;;;4.05;;
64857;SDS011;51335;51.148;6.950;2022-10-16T00:07:20;7.55;;;3.92;;
64857;SDS011;51335;51.148;6.950;2022-10-16T00:07:50;10.68;;;3.97;;
64857;SDS011;51335;51.148;6.950;2022-10-16T00:08:20;10.95;;;4.43;;
64857;SDS011;51335;51.148;6.950;2022-10-16T00:08:51;17.17;;;4.32;;
64857;SDS011;51335;51.148;6.950;2022-10-16T00:09:21;12.48;;;4.20;;
64857;SDS011;51335;51.148;6.950;2022-10-16T00:09:51;16.40;;;4.53;;
64857;SDS011;51335;51.148;6.950;2022-10-16T00:10:21;15.18;;;4.03;;
64857;SDS011;51335;51.148;6.950;2022-10-16T00:10:52;11.32;;;4.35;;
64857;SDS011;51335;51.148;6.950;2022-10-16T00:11:23;10.93;;;4.25;;
64857;SDS011;51335;51.148;6.950;2022-10-16T00:11:55;12.88;;;4.55;;
64857;SDS011;51335;51.148;6.950;2022-10-16T00:12:25;12.15;;;4.30;;
64857;SDS011;51335;51.148;6.950;2022-10-16T00:12:56;10.13;;;4.15;;
64857;SDS011;51335;51.148;6.950;2022-10-16T00:13:26;12.25;;;3.90;;
64857;SDS011;51335;51.148;6.950;2022-10-16T00:13:58;7.15;;;4.13;;
64857;SDS011;51335;51.148;6.950;2022-10-16T00:14:29;10.68;;;4.97;;
64857;SDS011;51335;51.148;6.950;2022-10-16T00:15:00;14.85;;;5.05;;
64857;SDS011;51335;51.148;6.950;2022-10-16T00:15:32;12.45;;;5.00;;
64857;SDS011;51335;51.148;6.950;2022-10-16T00:16:03;12.30;;;4.97;;
64857;SDS011;51335;51.148;6.950;2022-10-16T00:16:35;16.70;;;5.15;;
64857;SDS011;51335;51.148;6.950;2022-10-16T00:17:05;11.18;;;4.82;;
64857;SDS011;51335;51.148;6.950;2022-10-16T00:17:35;11.32;;;4.78;;
64857;SDS011;51335;51.148;6.950;2022-10-16T00:18:06;10.38;;;5.65;;
64857;SDS011;51335;51.148;6.950;2022-10-16T00:18:36;15.75;;;5.45;;
64857;SDS011;51335;51.148;6.950;2022-10-16T00:19:07;11.38;;;5.57;;
64857;SDS011;51335;51.148;6.950;2022-10-16T00:19:37;9.93;;;5.60;;
64857;SDS011;51335;51.148;6.950;2022-10-16T00:20:07;13.52;;;6.07;;
64857;SDS011;51335;51.148;6.950;2022-10-16T00:20:38;11.30;;;5.60;;
64857;SDS011;51335;51.148;6.950;2022-10-16T00:21:10;17.00;;;5.75;;
64857;SDS011;51335;51.148;6.950;2022-10-16T00:21:44;13.45;;;5.40;;
64857;SDS011;51335;51.148;6.950;2022-10-16T00:22:15;14.93;;;5.30;;
64857;SDS011;51335;51.148;6.950;2022-10-16T00:22:45;11.45;;;4.97;;
64857;SDS011;51335;51.148;6.950;2022-10-16T00:23:15;12.38;;;5.47;;
64857;SDS011;51335;51.148;6.950;2022-10-16T00:23:46;11.52;;;5.32;;
64857;SDS011;51335;51.148;6.950;2022-10-16T00:24:16;11.50;;;5.15;;
64857;SDS011;51335;51.148;6.950;2022-10-16T00:24:46;10.88;;;5.10;;
64857;SDS011;51335;51.148;6.950;2022-10-16T00:25:16;17.80;;;5.60;;
64857;SDS011;51335;51.148;6.950;2022-10-16T00:25:57;10.70;;;4.70;;
64857;SDS011;51335;51.148;6.950;2022-10-16T00:26:29;8.40;;;5.15;;
64857;SDS011;51335;51.148;6.950;2022-10-16T00:27:01;11.65;;;4.97;;
64857;SDS011;51335;51.148;6.950;2022-10-16T00:27:31;16.30;;;5.47;;
64857;SDS011;51335;51.148;6.950;2022-10-16T00:28:01;11.77;;;5.22;;
64857;SDS011;51335;51.148;6.950;2022-10-16T00:28:32;17.85;;;5.38;;
64857;SDS011;51335;51.148;6.950;2022-10-16T00:29:03;10.07;;;5.47;;
64857;SDS011;51335;51.148;6.950;2022-10-16T00:29:33;11.32;;;4.70;;
64857;SDS011;51335;51.148;6.950;2022-10-16T00:30:04;12.27;;;5.10;;
64857;SDS011;51335;51.148;6.950;2022-10-16T00:30:37;11.25;;;5.22;;
64857;SDS011;51335;51.148;6.950;2022-10-16T00:31:11;10.30;;;4.40;;
64857;SDS011;51335;51.148;6.950;2022-10-16T00:31:42;12.15;;;4.60;;
64857;SDS011;51335;51.148;6.950;2022-10-16T00:32:12;11.07;;;5.50;;
64857;SDS011;51335;51.148;6.950;2022-10-16T00:32:42;10.77;;;5.47;;
64857;SDS011;51335;51.148;6.950;2022-10-16T00:33:12;14.27;;;5.10;;
64857;SDS011;51335;51.148;6.950;2022-10-16T00:33:43;8.27;;;4.93;;
64857;SDS011;51335;51.148;6.950;2022-10-16T00:34:13;14.07;;;5.18;;
64857;SDS011;51335;51.148;6.950;2022-10-16T00:34:44;10.63;;;5.03;;
64857;SDS011;51335;51.148;6.950;2022-10-16T00:35:14;10.85;;;5.28;;
64857;SDS011;51335;51.148;6.950;2022-10-16T00:35:44;12.27;;;4.93;;
64857;SDS011;51335;51.148;6.950;2022-10-16T00:36:16;11.27;;;4.88;;
64857;SDS011;51335;51.148;6.950;2022-10-16T00:36:48;9.60;;;4.88;;
64857;SDS011;51335;51.148;6.950;2022-10-16T00:37:19;8.82;;;4.85;;
64857;SDS011;51335;51.148;6.950;2022-10-16T00:37:49;11.48;;;4.72;;
64857;SDS011;51335;51.148;6.950;2022-10-16T00:38:19;11.05;;;4.72;;
64857;SDS011;51335;51.148;6.950;2022-10-16T00:38:53;10.07;;;4.82;;
64857;SDS011;51335;51.148;6.950;2022-10-16T00:39:24;10.25;;;4.63;;
64857;SDS011;51335;51.148;6.950;2022-10-16T00:39:54;11.23;;;4.68;;
64857;SDS011;51335;51.148;6.950;2022-10-16T00:40:25;11.00;;;4.90;;
64857;SDS011;51335;51.148;6.950;2022-10-16T00:40:55;14.00;;;4.70;;
64857;SDS011;51335;51.148;6.950;2022-10-16T00:41:26;11.43;;;4.75;;
64857;SDS011;51335;51.148;6.950;2022-10-16T00:41:58;13.90;;;4.75;;
64857;SDS011;51335;51.148;6.950;2022-10-16T00:42:28;15.77;;;5.20;;
64857;SDS011;51335;51.148;6.950;2022-10-16T00:42:58;10.82;;;4.38;;
64857;SDS011;51335;51.148;6.950;2022-10-16T00:43:45;16.20;;;4.65;;
64857;SDS011;51335;51.148;6.950;2022-10-16T00:45:22;16.33;;;4.18;;
64857;SDS011;51335;51.148;6.950;2022-10-16T00:45:52;7.70;;;4.32;;
64857;SDS011;51335;51.148;6.950;2022-10-16T00:46:23;14.15;;;4.72;;
64857;SDS011;51335;51.148;6.950;2022-10-16T00:46:57;15.60;;;4.90;;
64857;SDS011;51335;51.148;6.950;2022-10-16T00:47:28;10.82;;;4.40;;
64857;SDS011;51335;51.148;6.950;2022-10-16T00:48:01;14.85;;;5.00;;
64857;SDS011;51335;51.148;6.950;2022-10-16T00:48:32;16.48;;;4.88;;
64857;SDS011;51335;51.148;6.950;2022-10-16T00:49:38;11.32;;;4.97;;
64857;SDS011;51335;51.148;6.950;2022-10-16T00:50:41;11.98;;;4.72;;
64857;SDS011;51335;51.148;6.950;2022-10-16T00:51:11;12.18;;;4.70;;
64857;SDS011;51335;51.148;6.950;2022-10-16T00:51:48;10.93;;;4.35;;
64857;SDS011;51335;51.148;6.950;2022-10-16T00:52:21;12.07;;;4.43;;
64857;SDS011;51335;51.148;6.950;2022-10-16T00:52:52;13.38;;;4.63;;
64857;SDS011;51335;51.148;6.950;2022-10-16T00:53:24;12.90;;;4.90;;
64857;SDS011;51335;51.148;6.950;2022-10-16T00:53:55;11.15;;;4.70;;
64857;SDS011;51335;51.148;6.950;2022-10-16T00:54:26;10.68;;;4.40;;
64857;SDS011;51335;51.148;6.950;2022-10-16T00:54:59;8.73;;;4.40;;
64857;SDS011;51335;51.148;6.950;2022-10-16T00:55:32;9.05;;;4.18;;
64857;SDS011;51335;51.148;6.950;2022-10-16T00:56:02;9.43;;;4.22;;
64857;SDS011;51335;51.148;6.950;2022-10-16T00:56:33;10.23;;;4.38;;
64857;SDS011;51335;51.148;6.950;2022-10-16T00:57:04;12.80;;;4.45;;
64857;SDS011;51335;51.148;6.950;2022-10-16T00:57:36;12.05;;;4.28;;
64857;SDS011;51335;51.148;6.950;2022-10-16T00:58:07;7.82;;;4.20;;
64857;SDS011;51335;51.148;6.950;2022-10-16T00:58:37;12.05;;;4.38;;
64857;SDS011;51335;51.148;6.950;2022-10-16T00:59:31;12.40;;;4.75;;
64857;SDS011;51335;51.148;6.950;2022-10-16T01:00:00;14.15;;;4.38;;
64857;SDS011;51335;51.148;6.950;2022-10-16T01:00:33;11.07;;;4.32;;
64857;SDS011;51335;51.148;6.950;2022-10-16T01:01:04;11.50;;;4.97;;
64857;SDS011;51335;51.148;6.950;2022-10-16T01:01:34;9.45;;;4.15;;
64857;SDS011;51335;51.148;6.950;2022-10-16T01:02:06;7.13;;;3.97;;
64857;SDS011;51335;51.148;6.950;2022-10-16T01:02:39;9.95;;;4.45;;
64857;SDS011;51335;51.148;6.950;2022-10-16T01:04:12;8.63;;;4.10;;
64857;SDS011;51335;51.148;6.950;2022-10-16T01:04:44;8.43;;;4.10;;
64857;SDS011;51335;51.148;6.950;2022-10-16T01:05:17;9.50;;;4.32;;
64857;SDS011;51335;51.148;6.950;2022-10-16T01:05:54;9.15;;;4.40;;
64857;SDS011;51335;51.148;6.950;2022-10-16T01:08:47;7.35;;;3.75;;
64857;SDS011;51335;51.148;6.950;2022-10-16T01:09:23;9.13;;;3.95;;
64857;SDS011;51335;51.148;6.950;2022-10-16T01:10:57;10.18;;;3.97;;
64857;SDS011;51335;51.148;6.950;2022-10-16T01:11:34;12.15;;;4.60;;
64857;SDS011;51335;51.148;6.950;2022-10-16T01:12:33;8.02;;;3.88;;
64857;SDS011;51335;51.148;6.950;2022-10-16T01:13:15;12.93;;;4.40;;
64857;SDS011;51335;51.148;6.950;2022-10-16T01:13:53;7.85;;;3.95;;
64857;SDS011;51335;51.148;6.950;2022-10-16T01:15:10;11.50;;;4.15;;
64857;SDS011;51335;51.148;6.950;2022-10-16T01:15:47;7.47;;;3.75;;
64857;SDS011;51335;51.148;6.950;2022-10-16T01:16:40;14.05;;;4.40;;
64857;SDS011;51335;51.148;6.950;2022-10-16T01:17:26;7.45;;;3.95;;
64857;SDS011;51335;51.148;6.950;2022-10-16T01:18:19;10.65;;;3.75;;
64857;SDS011;51335;51.148;6.950;2022-10-16T01:20:18;16.83;;;3.72;;
64857;SDS011;51335;51.148;6.950;2022-10-16T01:21:04;9.77;;;4.13;;
64857;SDS011;51335;51.148;6.950;2022-10-16T01:21:40;10.70;;;4.10;;
64857;SDS011;51335;51.148;6.950;2022-10-16T01:22:12;8.65;;;4.10;;
64857;SDS011;51335;51.148;6.950;2022-10-16T01:22:49;15.45;;;4.60;;
64857;SDS011;51335;51.148;6.950;2022-10-16T01:23:27;6.03;;;4.00;;
64857;SDS011;51335;51.148;6.950;2022-10-16T01:25:26;7.22;;;3.67;;
64857;SDS011;51335;51.148;6.950;2022-10-16T01:26:20;9.38;;;4.20;;
64857;SDS011;51335;51.148;6.950;2022-10-16T01:27:55;6.40;;;3.53;;
64857;SDS011;51335;51.148;6.950;2022-10-16T01:28:32;12.38;;;4.50;;
64857;SDS011;51335;51.148;6.950;2022-10-16T01:29:08;13.50;;;4.47;;
64857;SDS011;51335;51.148;6.950;2022-10-16T01:30:28;10.02;;;4.15;;
64857;SDS011;51335;51.148;6.950;2022-10-16T01:31:02;15.07;;;4.80;;
64857;SDS011;51335;51.148;6.950;2022-10-16T01:31:33;14.10;;;4.93;;
64857;SDS011;51335;51.148;6.950;2022-10-16T01:33:17;6.25;;;3.60;;
64857;SDS011;51335;51.148;6.950;2022-10-16T01:35:04;8.85;;;3.92;;
64857;SDS011;51335;51.148;6.950;2022-10-16T01:35:42;9.98;;;4.38;;
64857;SDS011;51335;51.148;6.950;2022-10-16T01:36:17;13.30;;;4.22;;
64857;SDS011;51335;51.148;6.950;2022-10-16T01:36:52;15.18;;;4.47;;
64857;SDS011;51335;51.148;6.950;2022-10-16T01:37:37;10.02;;;4.38;;
64857;SDS011;51335;51.148;6.950;2022-10-16T01:38:17;10.85;;;4.15;;
64857;SDS011;51335;51.148;6.950;2022-10-16T01:38:51;8.43;;;3.97;;
64857;SDS011;51335;51.148;6.950;2022-10-16T01:39:24;9.98;;;4.38;;
64857;SDS011;51335;51.148;6.950;2022-10-16T01:40:02;11.02;;;4.22;;
64857;SDS011;51335;51.148;6.950;2022-10-16T01:40:38;12.65;;;4.40;;
64857;SDS011;51335;51.148;6.950;2022-10-16T01:41:13;10.57;;;4.55;;
64857;SDS011;51335;51.148;6.950;2022-10-16T01:41:49;13.15;;;4.53;;
64857;SDS011;51335;51.148;6.950;2022-10-16T01:42:26;17.15;;;4.63;;
64857;SDS011;51335;51.148;6.950;2022-10-16T01:43:47;18.90;;;4.55;;
64857;SDS011;51335;51.148;6.950;2022-10-16T01:43:57;16.67;;;4.25;;
64857;SDS011;51335;51.148;6.950;2022-10-16T01:44:51;18.50;;;4.35;;
64857;SDS011;51335;51.148;6.950;2022-10-16T01:45:22;22.35;;;4.85;;
64857;SDS011;51335;51.148;6.950;2022-10-16T01:45:53;17.25;;;4.38;;
64857;SDS011;51335;51.148;6.950;2022-10-16T01:46:24;12.55;;;4.63;;
64857;SDS011;51335;51.148;6.950;2022-10-16T01:46:56;9.45;;;4.20;;
64857;SDS011;51335;51.148;6.950;2022-10-16T01:47:27;14.38;;;4.45;;
64857;SDS011;51335;51.148;6.950;2022-10-16T01:48:00;11.68;;;4.50;;
64857;SDS011;51335;51.148;6.950;2022-10-16T01:48:33;13.60;;;4.63;;
64857;SDS011;51335;51.148;6.950;2022-10-16T01:49:05;10.70;;;5.00;;
64857;SDS011;51335;51.148;6.950;2022-10-16T01:49:39;12.75;;;4.40;;
64857;SDS011;51335;51.148;6.950;2022-10-16T01:50:11;9.32;;;4.60;;
64857;SDS011;51335;51.148;6.950;2022-10-16T01:50:47;11.52;;;4.50;;
64857;SDS011;51335;51.148;6.950;2022-10-16T01:51:21;12.43;;;4.50;;
64857;SDS011;51335;51.148;6.950;2022-10-16T01:51:55;10.35;;;4.55;;
64857;SDS011;51335;51.148;6.950;2022-10-16T01:52:27;14.02;;;4.70;;
64857;SDS011;51335;51.148;6.950;2022-10-16T01:52:59;13.35;;;4.72;;
64857;SDS011;51335;51.148;6.950;2022-10-16T01:53:33;11.85;;;4.55;;
64857;SDS011;51335;51.148;6.950;2022-10-16T01:54:04;9.27;;;4.53;;
64857;SDS011;51335;51.148;6.950;2022-10-16T01:54:39;13.32;;;5.00;;
64857;SDS011;51335;51.148;6.950;2022-10-16T01:55:12;11.13;;;4.88;;
64857;SDS011;51335;51.148;6.950;2022-10-16T01:55:46;8.88;;;4.15;;
64857;SDS011;51335;51.148;6.950;2022-10-16T01:56:19;6.93;;;4.47;;
64857;SDS011;51335;51.148;6.950;2022-10-16T01:56:51;7.97;;;4.63;;
64857;SDS011;51335;51.148;6.950;2022-10-16T01:57:22;8.35;;;4.47;;
64857;SDS011;51335;51.148;6.950;2022-10-16T01:57:55;9.88;;;4.55;;
64857;SDS011;51335;51.148;6.950;2022-10-16T01:58:29;16.67;;;4.53;;
64857;SDS011;51335;51.148;6.950;2022-10-16T01:59:05;13.10;;;4.60;;
64857;SDS011;51335;51.148;6.950;2022-10-16T01:59:42;11.15;;;4.60;;
64857;SDS011;51335;51.148;6.950;2022-10-16T02:00:16;8.38;;;4.10;;
64857;SDS011;51335;51.148;6.950;2022-10-16T02:00:48;16.00;;;4.47;;
64857;SDS011;51335;51.148;6.950;2022-10-16T02:01:21;10.52;;;4.72;;
64857;SDS011;51335;51.148;6.950;2022-10-16T02:01:55;11.43;;;5.38;;
64857;SDS011;51335;51.148;6.950;2022-10-16T02:02:33;9.25;;;5.00;;
64857;SDS011;51335;51.148;6.950;2022-10-16T02:03:04;11.30;;;4.88;;
64857;SDS011;51335;51.148;6.950;2022-10-16T02:03:36;8.25;;;4.65;;
64857;SDS011;51335;51.148;6.950;2022-10-16T02:04:11;9.60;;;4.72;;
64857;SDS011;51335;51.148;6.950;2022-10-16T02:04:48;16.85;;;5.13;;
64857;SDS011;51335;51.148;6.950;2022-10-16T02:05:28;13.10;;;5.10;;
64857;SDS011;51335;51.148;6.950;2022-10-16T02:06:07;13.57;;;4.95;;
64857;SDS011;51335;51.148;6.950;2022-10-16T02:06:37;14.57;;;5.65;;
64857;SDS011;51335;51.148;6.950;2022-10-16T02:07:08;14.90;;;4.78;;
64857;SDS011;51335;51.148;6.950;2022-10-16T02:07:38;17.42;;;4.80;;
64857;SDS011;51335;51.148;6.950;2022-10-16T02:08:09;11.10;;;5.35;;
64857;SDS011;51335;51.148;6.950;2022-10-16T02:08:39;12.90;;;4.70;;
64857;SDS011;51335;51.148;6.950;2022-10-16T02:09:09;11.55;;;4.80;;
64857;SDS011;51335;51.148;6.950;2022-10-16T02:09:40;7.47;;;5.13;;
64857;SDS011;51335;51.148;6.950;2022-10-16T02:10:10;10.52;;;4.70;;
64857;SDS011;51335;51.148;6.950;2022-10-16T02:10:41;12.93;;;4.75;;
64857;SDS011;51335;51.148;6.950;2022-10-16T02:11:11;8.32;;;4.25;;
64857;SDS011;51335;51.148;6.950;2022-10-16T02:11:42;10.45;;;4.82;;
64857;SDS011;51335;51.148;6.950;2022-10-16T02:12:14;11.77;;;4.72;;
64857;SDS011;51335;51.148;6.950;2022-10-16T02:12:55;8.48;;;4.40;;
64857;SDS011;51335;51.148;6.950;2022-10-16T02:13:35;6.20;;;4.20;;
64857;SDS011;51335;51.148;6.950;2022-10-16T02:14:09;10.55;;;4.53;;
64857;SDS011;51335;51.148;6.950;2022-10-16T02:14:39;10.20;;;4.70;;
64857;SDS011;51335;51.148;6.950;2022-10-16T02:15:10;9.65;;;4.50;;
64857;SDS011;51335;51.148;6.950;2022-10-16T02:15:41;9.40;;;4.90;;
64857;SDS011;51335;51.148;6.950;2022-10-16T02:16:12;6.72;;;4.28;;
64857;SDS011;51335;51.148;6.950;2022-10-16T02:16:44;11.43;;;4.70;;
64857;SDS011;51335;51.148;6.950;2022-10-16T02:17:19;10.75;;;4.88;;
64857;SDS011;51335;51.148;6.950;2022-10-16T02:17:50;10.10;;;4.82;;
64857;SDS011;51335;51.148;6.950;2022-10-16T02:18:21;7.65;;;4.50;;
64857;SDS011;51335;51.148;6.950;2022-10-16T02:18:51;9.80;;;4.57;;
64857;SDS011;51335;51.148;6.950;2022-10-16T02:19:22;8.02;;;4.60;;
64857;SDS011;51335;51.148;6.950;2022-10-16T02:19:53;7.13;;;4.75;;
64857;SDS011;51335;51.148;6.950;2022-10-16T02:20:26;7.22;;;4.45;;
64857;SDS011;51335;51.148;6.950;2022-10-16T02:21:00;6.72;;;4.32;;
64857;SDS011;51335;51.148;6.950;2022-10-16T02:21:39;6.75;;;4.40;;
64857;SDS011;51335;51.148;6.950;2022-10-16T02:22:30;7.65;;;4.22;;
64857;SDS011;51335;51.148;6.950;2022-10-16T02:23:03;11.50;;;4.47;;
64857;SDS011;51335;51.148;6.950;2022-10-16T02:23:35;7.55;;;4.15;;
64857;SDS011;51335;51.148;6.950;2022-10-16T02:24:54;7.40;;;4.05;;
64857;SDS011;51335;51.148;6.950;2022-10-16T02:25:39;6.47;;;3.67;;
64857;SDS011;51335;51.148;6.950;2022-10-16T02:26:12;7.65;;;3.75;;
64857;SDS011;51335;51.148;6.950;2022-10-16T02:26:52;7.57;;;3.92;;
64857;SDS011;51335;51.148;6.950;2022-10-16T02:27:51;4.80;;;3.40;;
64857;SDS011;51335;51.148;6.950;2022-10-16T02:28:27;10.50;;;4.40;;
64857;SDS011;51335;51.148;6.950;2022-10-16T02:29:05;9.25;;;4.10;;
64857;SDS011;51335;51.148;6.950;2022-10-16T02:29:42;7.82;;;4.00;;
64857;SDS011;51335;51.148;6.950;2022-10-16T02:30:51;7.13;;;4.20;;
64857;SDS011;51335;51.148;6.950;2022-10-16T02:31:28;6.97;;;3.95;;
64857;SDS011;51335;51.148;6.950;2022-10-16T02:32:02;5.18;;;3.90;;
64857;SDS011;51335;51.148;6.950;2022-10-16T02:32:36;6.07;;;3.78;;
64857;SDS011;51335;51.148;6.950;2022-10-16T02:33:09;5.22;;;3.30;;
64857;SDS011;51335;51.148;6.950;2022-10-16T02:33:41;7.13;;;3.60;;
64857;SDS011;51335;51.148;6.950;2022-10-16T02:34:13;6.25;;;3.47;;
64857;SDS011;51335;51.148;6.950;2022-10-16T02:34:46;7.93;;;3.70;;
64857;SDS011;51335;51.148;6.950;2022-10-16T02:35:19;3.83;;;3.40;;
64857;SDS011;51335;51.148;6.950;2022-10-16T02:35:51;10.68;;;3.72;;
64857;SDS011;51335;51.148;6.950;2022-10-16T02:36:23;6.00;;;3.55;;
64857;SDS011;51335;51.148;6.950;2022-10-16T02:36:54;6.57;;;3.40;;
64857;SDS011;51335;51.148;6.950;2022-10-16T02:37:25;7.57;;;3.60;;
64857;SDS011;51335;51.148;6.950;2022-10-16T02:37:57;6.95;;;3.40;;
64857;SDS011;51335;51.148;6.950;2022-10-16T02:38:28;7.10;;;3.95;;
64857;SDS011;51335;51.148;6.950;2022-10-16T02:39:00;10.30;;;3.75;;
64857;SDS011;51335;51.148;6.950;2022-10-16T02:39:31;8.35;;;3.50;;
64857;SDS011;51335;51.148;6.950;2022-10-16T02:40:01;5.85;;;3.42;;
64857;SDS011;51335;51.148;6.950;2022-10-16T02:40:32;6.80;;;3.25;;
64857;SDS011;51335;51.148;6.950;2022-10-16T02:41:03;5.35;;;3.38;;
64857;SDS011;51335;51.148;6.950;2022-10-16T02:41:34;7.38;;;3.08;;
64857;SDS011;51335;51.148;6.950;2022-10-16T02:42:09;7.38;;;3.50;;
64857;SDS011;51335;51.148;6.950;2022-10-16T02:42:42;6.57;;;2.90;;
64857;SDS011;51335;51.148;6.950;2022-10-16T02:43:12;6.47;;;2.88;;
64857;SDS011;51335;51.148;6.950;2022-10-16T02:43:43;5.15;;;2.95;;
64857;SDS011;51335;51.148;6.950;2022-10-16T02:44:13;4.60;;;3.30;;
64857;SDS011;51335;51.148;6.950;2022-10-16T02:44:43;5.53;;;3.17;;
64857;SDS011;51335;51.148;6.950;2022-10-16T02:45:14;4.43;;;2.80;;
64857;SDS011;51335;51.148;6.950;2022-10-16T02:45:44;3.83;;;3.00;;
64857;SDS011;51335;51.148;6.950;2022-10-16T02:46:14;7.38;;;2.97;;
64857;SDS011;51335;51.148;6.950;2022-10-16T02:46:46;4.55;;;2.78;;
64857;SDS011;51335;51.148;6.950;2022-10-16T02:47:16;6.50;;;3.20;;
64857;SDS011;51335;51.148;6.950;2022-10-16T02:47:47;5.95;;;3.40;;
64857;SDS011;51335;51.148;6.950;2022-10-16T02:48:18;5.15;;;3.60;;
64857;SDS011;51335;51.148;6.950;2022-10-16T02:48:48;5.65;;;3.20;;
64857;SDS011;51335;51.148;6.950;2022-10-16T02:49:18;5.75;;;3.20;;
64857;SDS011;51335;51.148;6.950;2022-10-16T02:49:48;8.95;;;3.33;;
64857;SDS011;51335;51.148;6.950;2022-10-16T02:50:19;6.82;;;3.15;;
64857;SDS011;51335;51.148;6.950;2022-10-16T02:50:49;6.03;;;2.72;;
64857;SDS011;51335;51.148;6.950;2022-10-16T02:51:19;4.70;;;2.90;;
64857;SDS011;51335;51.148;6.950;2022-10-16T02:51:49;7.25;;;3.10;;
64857;SDS011;51335;51.148;6.950;2022-10-16T02:52:20;9.80;;;3.33;;
64857;SDS011;51335;51.148;6.950;2022-10-16T02:52:50;5.78;;;3.20;;
64857;SDS011;51335;51.148;6.950;2022-10-16T02:53:20;9.65;;;3.20;;
64857;SDS011;51335;51.148;6.950;2022-10-16T02:53:51;5.60;;;3.00;;
64857;SDS011;51335;51.148;6.950;2022-10-16T02:54:21;7.72;;;3.08;;
64857;SDS011;51335;51.148;6.950;2022-10-16T02:54:51;4.43;;;2.88;;
64857;SDS011;51335;51.148;6.950;2022-10-16T02:55:22;7.18;;;3.33;;
64857;SDS011;51335;51.148;6.950;2022-10-16T02:55:52;6.68;;;3.30;;
64857;SDS011;51335;51.148;6.950;2022-10-16T02:56:22;7.00;;;2.92;;
64857;SDS011;51335;51.148;6.950;2022-10-16T02:56:53;12.68;;;3.17;;
64857;SDS011;51335;51.148;6.950;2022-10-16T02:57:23;8.07;;;3.55;;
64857;SDS011;51335;51.148;6.950;2022-10-16T02:57:53;5.70;;;3.00;;
64857;SDS011;51335;51.148;6.950;2022-10-16T02:58:24;7.82;;;3.20;;
64857;SDS011;51335;51.148;6.950;2022-10-16T02:58:54;5.60;;;2.80;;
64857;SDS011;51335;51.148;6.950;2022-10-16T02:59:24;4.60;;;2.70;;
64857;SDS011;51335;51.148;6.950;2022-10-16T02:59:55;3.95;;;2.78;;
64857;SDS011;51335;51.148;6.950;2022-10-16T03:00:25;9.02;;;3.15;;
64857;SDS011;51335;51.148;6.950;2022-10-16T03:00:55;5.28;;;3.05;;
64857;SDS011;51335;51.148;6.950;2022-10-16T03:01:26;5.93;;;3.20;;
64857;SDS011;51335;51.148;6.950;2022-10-16T03:01:56;5.45;;;2.80;;
64857;SDS011;51335;51.148;6.950;2022-10-16T03:02:26;6.03;;;3.15;;
64857;SDS011;51335;51.148;6.950;2022-10-16T03:02:56;6.47;;;3.20;;
64857;SDS011;51335;51.148;6.950;2022-10-16T03:03:27;5.68;;;2.67;;
64857;SDS011;51335;51.148;6.950;2022-10-16T03:03:57;6.75;;;3.00;;
64857;SDS011;51335;51.148;6.950;2022-10-16T03:04:27;6.15;;;2.75;;
64857;SDS011;51335;51.148;6.950;2022-10-16T03:04:57;5.93;;;3.00;;
64857;SDS011;51335;51.148;6.950;2022-10-16T03:05:28;6.82;;;2.58;;
64857;SDS011;51335;51.148;6.950;2022-10-16T03:05:58;5.75;;;2.90;;
64857;SDS011;51335;51.148;6.950;2022-10-16T03:06:28;4.90;;;2.90;;
64857;SDS011;51335;51.148;6.950;2022-10-16T03:06:58;5.75;;;2.90;;
64857;SDS011;51335;51.148;6.950;2022-10-16T03:07:29;5.32;;;2.70;;
64857;SDS011;51335;51.148;6.950;2022-10-16T03:07:59;5.40;;;2.60;;
64857;SDS011;51335;51.148;6.950;2022-10-16T03:08:29;4.82;;;2.90;;
64857;SDS011;51335;51.148;6.950;2022-10-16T03:09:00;8.90;;;2.88;;
64857;SDS011;51335;51.148;6.950;2022-10-16T03:09:30;4.60;;;2.90;;
64857;SDS011;51335;51.148;6.950;2022-10-16T03:10:00;4.63;;;2.63;;
64857;SDS011;51335;51.148;6.950;2022-10-16T03:10:30;9.45;;;2.60;;
64857;SDS011;51335;51.148;6.950;2022-10-16T03:11:01;4.90;;;2.90;;
64857;SDS011;51335;51.148;6.950;2022-10-16T03:11:31;7.07;;;2.90;;
64857;SDS011;51335;51.148;6.950;2022-10-16T03:12:01;5.82;;;2.78;;
64857;SDS011;51335;51.148;6.950;2022-10-16T03:12:32;7.88;;;2.80;;
64857;SDS011;51335;51.148;6.950;2022-10-16T03:13:02;6.10;;;2.72;;
64857;SDS011;51335;51.148;6.950;2022-10-16T03:13:33;9.00;;;3.00;;
64857;SDS011;51335;51.148;6.950;2022-10-16T03:14:03;5.10;;;3.03;;
64857;SDS011;51335;51.148;6.950;2022-10-16T03:14:34;4.03;;;2.60;;
64857;SDS011;51335;51.148;6.950;2022-10-16T03:15:04;8.65;;;3.30;;
64857;SDS011;51335;51.148;6.950;2022-10-16T03:15:35;3.90;;;2.70;;
64857;SDS011;51335;51.148;6.950;2022-10-16T03:16:05;8.40;;;3.00;;
64857;SDS011;51335;51.148;6.950;2022-10-16T03:16:36;5.00;;;2.72;;
64857;SDS011;51335;51.148;6.950;2022-10-16T03:17:06;4.47;;;2.97;;
64857;SDS011;51335;51.148;6.950;2022-10-16T03:17:36;5.15;;;3.00;;
64857;SDS011;51335;51.148;6.950;2022-10-16T03:18:06;8.35;;;3.08;;
64857;SDS011;51335;51.148;6.950;2022-10-16T03:18:37;8.48;;;3.40;;
64857;SDS011;51335;51.148;6.950;2022-10-16T03:19:07;5.72;;;2.97;;
64857;SDS011;51335;51.148;6.950;2022-10-16T03:19:37;7.50;;;3.08;;
64857;SDS011;51335;51.148;6.950;2022-10-16T03:20:07;6.70;;;2.60;;
64857;SDS011;51335;51.148;6.950;2022-10-16T03:20:38;6.70;;;3.03;;
64857;SDS011;51335;51.148;6.950;2022-10-16T03:21:08;5.85;;;2.85;;
64857;SDS011;51335;51.148;6.950;2022-10-16T03:21:38;8.68;;;3.33;;
64857;SDS011;51335;51.148;6.950;2022-10-16T03:22:09;6.25;;;3.17;;
64857;SDS011;51335;51.148;6.950;2022-10-16T03:22:39;8.13;;;3.17;;
64857;SDS011;51335;51.148;6.950;2022-10-16T03:23:09;10.18;;;3.53;;
64857;SDS011;51335;51.148;6.950;2022-10-16T03:23:40;9.13;;;3.50;;
64857;SDS011;51335;51.148;6.950;2022-10-16T03:24:10;8.23;;;3.20;;
64857;SDS011;51335;51.148;6.950;2022-10-16T03:24:40;5.47;;;3.63;;
64857;SDS011;51335;51.148;6.950;2022-10-16T03:25:10;5.00;;;3.60;;
64857;SDS011;51335;51.148;6.950;2022-10-16T03:25:41;5.57;;;3.10;;
64857;SDS011;51335;51.148;6.950;2022-10-16T03:26:11;7.43;;;3.53;;
64857;SDS011;51335;51.148;6.950;2022-10-16T03:26:41;7.80;;;3.30;;
64857;SDS011;51335;51.148;6.950;2022-10-16T03:27:12;8.30;;;3.33;;
64857;SDS011;51335;51.148;6.950;2022-10-16T03:27:42;8.07;;;3.28;;
64857;SDS011;51335;51.148;6.950;2022-10-16T03:28:12;8.20;;;3.40;;
64857;SDS011;51335;51.148;6.950;2022-10-16T03:28:42;5.10;;;3.15;;
64857;SDS011;51335;51.148;6.950;2022-10-16T03:29:13;6.47;;;3.20;;
64857;SDS011;51335;51.148;6.950;2022-10-16T03:29:43;7.25;;;3.25;;
64857;SDS011;51335;51.148;6.950;2022-10-16T03:30:13;6.78;;;3.05;;
64857;SDS011;51335;51.148;6.950;2022-10-16T03:30:44;8.52;;;3.40;;
64857;SDS011;51335;51.148;6.950;2022-10-16T03:31:14;8.23;;;3.35;;